createdAt,value
2018-06-16T00:00:59.142Z,4.77
2018-06-16T00:03:28.192Z,4.70
2018-06-16T00:05:57.161Z,4.90
2018-06-16T00:08:26.183Z,5.13
2018-06-16T00:10:55.163Z,4.63
2018-06-16T00:13:24.193Z,4.53
2018-06-16T00:15:53.188Z,4.00
2018-06-16T00:18:22.190Z,5.10
2018-06-16T00:20:51.149Z,4.40
2018-06-16T00:23:20.182Z,4.00
2018-06-16T00:25:49.164Z,3.80
2018-06-16T00:28:18.163Z,4.70
2018-06-16T00:30:47.119Z,4.57
2018-06-16T00:33:16.155Z,4.80
2018-06-16T00:35:45.111Z,4.63
2018-06-16T00:38:14.137Z,5.03
2018-06-16T00:40:43.154Z,5.00
2018-06-16T00:43:12.184Z,4.60
2018-06-16T00:45:41.231Z,4.63
2018-06-16T00:48:10.222Z,4.77
2018-06-16T00:50:39.262Z,4.80
2018-06-16T00:53:08.274Z,4.73
2018-06-16T00:55:37.313Z,4.80
2018-06-16T00:58:06.279Z,5.00
2018-06-16T01:00:35.316Z,5.00
2018-06-16T01:03:04.323Z,4.97
2018-06-16T01:05:33.354Z,5.13
2018-06-16T01:08:02.354Z,4.93
2018-06-16T01:10:31.358Z,5.53
2018-06-16T01:13:01.238Z,4.87
2018-06-16T01:15:30.281Z,5.37
2018-06-16T01:17:59.353Z,5.40
2018-06-16T01:20:28.392Z,4.47
2018-06-16T01:22:57.374Z,4.70
2018-06-16T01:25:26.402Z,5.07
2018-06-16T01:27:55.384Z,5.00
2018-06-16T01:30:24.389Z,4.97
2018-06-16T01:32:53.373Z,5.90
2018-06-16T01:35:22.375Z,4.93
2018-06-16T01:37:57.666Z,5.20
2018-06-16T01:40:26.702Z,5.00
2018-06-16T01:42:55.680Z,5.53
2018-06-16T01:45:24.755Z,5.73
2018-06-16T01:47:53.762Z,5.33
2018-06-16T01:50:22.803Z,5.30
2018-06-16T01:52:51.790Z,5.40
2018-06-16T01:55:20.834Z,5.20
2018-06-16T01:57:49.805Z,5.30
2018-06-16T02:00:18.843Z,5.57
2018-06-16T02:02:47.802Z,4.73
2018-06-16T02:05:16.849Z,5.30
2018-06-16T02:07:45.809Z,5.47
2018-06-16T02:10:14.823Z,5.20
2018-06-16T02:12:43.809Z,4.83
2018-06-16T02:15:12.875Z,5.17
2018-06-16T02:17:41.858Z,5.30
2018-06-16T02:20:10.910Z,5.63
2018-06-16T02:22:39.918Z,5.10
2018-06-16T02:25:08.943Z,5.77
2018-06-16T02:27:37.878Z,5.30
2018-06-16T02:30:06.934Z,5.43
2018-06-16T02:32:35.991Z,5.00
2018-06-16T02:35:04.995Z,5.60
2018-06-16T02:37:33.957Z,4.60
2018-06-16T02:40:02.930Z,5.10
2018-06-16T02:42:31.874Z,5.43
2018-06-16T02:45:00.910Z,5.60
2018-06-16T02:47:29.889Z,5.47
2018-06-16T02:49:58.874Z,6.10
2018-06-16T02:52:27.796Z,5.70
2018-06-16T02:54:56.802Z,5.33
2018-06-16T02:57:25.765Z,5.60
2018-06-16T02:59:54.753Z,5.50
2018-06-16T03:02:23.726Z,5.10
2018-06-16T03:04:52.703Z,5.77
2018-06-16T03:07:21.661Z,5.60
2018-06-16T03:09:50.728Z,5.57
2018-06-16T03:12:19.685Z,5.50
2018-06-16T03:14:48.675Z,6.23
2018-06-16T03:17:17.591Z,5.30
2018-06-16T03:19:46.602Z,5.80
2018-06-16T03:22:15.590Z,5.30
2018-06-16T03:24:44.561Z,5.20
2018-06-16T03:27:13.510Z,5.63
2018-06-16T03:29:42.486Z,5.10
2018-06-16T03:32:11.453Z,4.60
2018-06-16T03:34:40.505Z,4.93
2018-06-16T03:37:09.443Z,5.73
2018-06-16T03:39:38.463Z,5.87
2018-06-16T03:42:07.401Z,5.00
2018-06-16T03:44:36.363Z,4.63
2018-06-16T03:47:05.362Z,4.83
2018-06-16T03:49:34.331Z,5.17
2018-06-16T03:52:03.315Z,5.00
2018-06-16T03:54:32.262Z,5.00
2018-06-16T03:57:01.280Z,5.50
2018-06-16T03:59:30.294Z,4.60
2018-06-16T04:01:59.299Z,5.00
2018-06-16T04:04:28.272Z,6.00
2018-06-16T04:06:57.242Z,4.93
2018-06-16T04:09:26.211Z,5.80
2018-06-16T04:11:55.178Z,5.60
2018-06-16T04:14:24.110Z,5.13
2018-06-16T04:16:53.094Z,5.50
2018-06-16T04:19:22.014Z,5.47
2018-06-16T04:21:51.014Z,5.20
2018-06-16T04:24:19.987Z,5.30
2018-06-16T04:26:49.026Z,5.40
2018-06-16T04:29:17.970Z,5.37
2018-06-16T04:31:46.963Z,4.77
2018-06-16T04:34:15.944Z,5.37
2018-06-16T04:36:44.934Z,5.30
2018-06-16T04:39:13.871Z,4.80
2018-06-16T04:41:42.887Z,5.30
2018-06-16T04:44:11.809Z,4.50
2018-06-16T04:46:40.830Z,4.30
2018-06-16T04:49:09.937Z,5.00
2018-06-16T04:51:38.881Z,4.70
2018-06-16T04:54:07.862Z,5.03
2018-06-16T04:56:36.873Z,4.13
2018-06-16T04:59:05.859Z,5.27
2018-06-16T05:01:35.180Z,5.40
2018-06-16T05:04:04.132Z,5.13
2018-06-16T05:06:33.106Z,5.40
2018-06-16T05:09:02.057Z,4.87
2018-06-16T05:11:31.062Z,4.93
2018-06-16T05:13:59.983Z,4.80
2018-06-16T05:16:28.973Z,4.90
2018-06-16T05:18:57.965Z,4.50
2018-06-16T05:21:26.947Z,5.00
2018-06-16T05:23:55.921Z,5.10
2018-06-16T05:26:24.893Z,4.87
2018-06-16T05:28:53.871Z,5.30
2018-06-16T05:31:22.870Z,4.77
2018-06-16T05:33:52.050Z,5.10
2018-06-16T05:36:21.407Z,4.67
2018-06-16T05:38:50.553Z,4.40
2018-06-16T05:41:19.579Z,4.37
2018-06-16T05:43:48.578Z,5.23
2018-06-16T05:46:17.589Z,4.77
2018-06-16T05:48:46.553Z,4.43
2018-06-16T05:51:15.535Z,5.60
2018-06-16T05:53:44.470Z,4.60
2018-06-16T05:56:13.447Z,4.70
2018-06-16T05:58:42.381Z,5.03
2018-06-16T06:01:11.386Z,4.70
2018-06-16T06:03:40.474Z,4.63
2018-06-16T06:06:09.443Z,4.47
2018-06-16T06:08:38.395Z,5.17
2018-06-16T06:11:07.376Z,4.70
2018-06-16T06:13:36.379Z,4.50
2018-06-16T06:16:05.362Z,4.70
2018-06-16T06:18:34.326Z,5.20
2018-06-16T06:21:03.335Z,4.60
2018-06-16T06:23:32.302Z,4.07
2018-06-16T06:26:01.297Z,4.40
2018-06-16T06:28:30.253Z,4.53
2018-06-16T06:30:59.245Z,4.93
2018-06-16T06:33:28.166Z,5.00
2018-06-16T06:35:57.444Z,4.30
2018-06-16T06:38:26.378Z,5.10
2018-06-16T06:40:55.402Z,4.80
2018-06-16T06:43:24.424Z,5.10
2018-06-16T06:45:53.466Z,5.37
2018-06-16T06:48:22.411Z,5.80
2018-06-16T06:50:51.401Z,5.10
2018-06-16T06:53:20.414Z,5.53
2018-06-16T06:55:49.363Z,5.17
2018-06-16T06:58:18.365Z,6.00
2018-06-16T07:00:47.477Z,6.33
2018-06-16T07:03:16.446Z,7.27
2018-06-16T07:05:45.389Z,8.20
2018-06-16T07:08:14.385Z,7.03
2018-06-16T07:10:43.357Z,7.57
2018-06-16T07:13:12.348Z,6.90
2018-06-16T07:15:41.296Z,7.20
2018-06-16T07:18:10.279Z,8.23
2018-06-16T07:20:39.231Z,8.93
2018-06-16T07:23:08.229Z,8.13
2018-06-16T07:25:37.267Z,7.73
2018-06-16T07:28:06.256Z,7.57
2018-06-16T07:30:35.230Z,7.00
2018-06-16T07:33:04.222Z,7.87
2018-06-16T07:35:33.164Z,8.13
2018-06-16T07:38:02.186Z,7.20
2018-06-16T07:40:31.134Z,7.40
2018-06-16T07:43:00.104Z,7.33
2018-06-16T07:45:29.042Z,7.53
2018-06-16T07:47:58.026Z,7.30
2018-06-16T07:50:26.994Z,6.63
2018-06-16T07:52:55.986Z,7.30
2018-06-16T07:55:24.926Z,6.67
2018-06-16T07:57:53.977Z,6.90
2018-06-16T08:00:22.930Z,6.97
2018-06-16T08:02:51.951Z,6.97
2018-06-16T08:05:20.945Z,6.80
2018-06-16T08:07:49.935Z,7.70
2018-06-16T08:10:19.073Z,6.50
2018-06-16T08:12:48.119Z,6.87
2018-06-16T08:15:17.056Z,7.67
2018-06-16T08:17:46.055Z,6.77
2018-06-16T08:20:15.060Z,7.70
2018-06-16T08:22:44.037Z,6.70
2018-06-16T08:25:12.984Z,6.70
2018-06-16T08:27:41.974Z,7.20
2018-06-16T08:30:10.950Z,6.27
2018-06-16T08:32:39.968Z,6.20
2018-06-16T08:35:08.956Z,5.93
2018-06-16T08:37:37.979Z,6.33
2018-06-16T08:40:06.957Z,5.80
2018-06-16T08:42:35.976Z,5.77
2018-06-16T08:45:05.028Z,5.50
2018-06-16T08:47:34.031Z,6.70
2018-06-16T08:50:03.116Z,6.63
2018-06-16T08:52:32.140Z,6.50
2018-06-16T08:55:01.126Z,5.97
2018-06-16T08:57:30.138Z,6.47
2018-06-16T08:59:59.059Z,6.97
2018-06-16T09:02:28.094Z,6.00
2018-06-16T09:04:57.230Z,6.20
2018-06-16T09:07:26.266Z,6.03
2018-06-16T09:09:55.575Z,5.77
2018-06-16T09:12:24.616Z,6.00
2018-06-16T09:14:53.598Z,6.30
2018-06-16T09:17:22.651Z,6.80
2018-06-16T09:19:51.652Z,6.57
2018-06-16T09:22:20.666Z,7.73
2018-06-16T09:24:49.816Z,6.93
2018-06-16T09:27:18.840Z,6.60
2018-06-16T09:29:47.818Z,6.13
2018-06-16T09:32:16.832Z,6.13
2018-06-16T09:34:45.826Z,6.03
2018-06-16T09:37:14.817Z,6.67
2018-06-16T09:39:43.814Z,6.20
2018-06-16T09:42:12.809Z,6.97
2018-06-16T09:44:41.826Z,6.77
2018-06-16T09:47:10.779Z,6.60
2018-06-16T09:49:39.776Z,6.90
2018-06-16T09:52:08.768Z,6.47
2018-06-16T09:54:37.787Z,7.47
2018-06-16T09:57:06.756Z,6.10
2018-06-16T09:59:35.785Z,6.50
2018-06-16T10:02:04.734Z,6.33
2018-06-16T10:04:33.737Z,7.10
2018-06-16T10:07:02.722Z,7.07
2018-06-16T10:09:31.724Z,6.53
2018-06-16T10:12:00.665Z,6.20
2018-06-16T10:14:29.778Z,6.10
2018-06-16T10:16:58.730Z,6.37
2018-06-16T10:19:27.732Z,6.00
2018-06-16T10:21:56.707Z,6.17
2018-06-16T10:24:25.719Z,5.97
2018-06-16T10:26:54.660Z,5.47
2018-06-16T10:29:23.670Z,6.70
2018-06-16T10:31:52.637Z,6.10
2018-06-16T10:34:21.702Z,5.90
2018-06-16T10:36:50.678Z,6.30
2018-06-16T10:39:19.665Z,6.03
2018-06-16T10:41:48.591Z,5.50
2018-06-16T10:44:17.591Z,5.40
2018-06-16T10:46:46.536Z,5.90
2018-06-16T10:49:15.555Z,6.20
2018-06-16T10:51:44.511Z,5.93
2018-06-16T10:54:13.547Z,5.60
2018-06-16T10:56:42.486Z,6.20
2018-06-16T10:59:11.542Z,5.73
2018-06-16T11:01:40.489Z,4.93
2018-06-16T11:04:09.507Z,5.23
2018-06-16T11:06:38.563Z,6.17
2018-06-16T11:09:09.205Z,5.50
2018-06-16T11:11:38.166Z,6.20
2018-06-16T11:14:07.360Z,6.50
2018-06-16T11:16:36.340Z,6.57
2018-06-16T11:19:05.873Z,5.50
2018-06-16T11:21:34.931Z,5.50
2018-06-16T11:24:03.953Z,4.97
2018-06-16T11:26:32.918Z,5.33
2018-06-16T11:29:01.886Z,4.93
2018-06-16T11:31:30.941Z,4.33
2018-06-16T11:33:59.876Z,4.40
2018-06-16T11:36:28.861Z,4.80
2018-06-16T11:38:57.828Z,4.77
2018-06-16T11:41:26.826Z,4.67
2018-06-16T11:43:55.810Z,4.40
2018-06-16T11:46:24.804Z,4.93
2018-06-16T11:48:53.746Z,4.57
2018-06-16T11:51:22.751Z,5.03
2018-06-16T11:53:51.709Z,5.07
2018-06-16T11:56:20.688Z,4.50
2018-06-16T11:58:49.667Z,5.03
2018-06-16T12:01:18.658Z,4.30
2018-06-16T12:03:47.663Z,4.80
2018-06-16T12:06:16.642Z,4.90
2018-06-16T12:08:45.594Z,4.27
2018-06-16T12:11:14.642Z,4.83
2018-06-16T12:13:43.587Z,4.97
2018-06-16T12:16:12.598Z,4.53
2018-06-16T12:18:41.545Z,4.60
2018-06-16T12:21:10.534Z,4.73
2018-06-16T12:23:39.525Z,4.33
2018-06-16T12:26:08.476Z,4.63
2018-06-16T12:28:37.482Z,4.40
2018-06-16T12:31:06.503Z,4.30
2018-06-16T12:33:35.450Z,4.93
2018-06-16T12:36:04.606Z,4.83
2018-06-16T12:38:33.509Z,4.27
2018-06-16T12:41:02.501Z,4.73
2018-06-16T12:43:31.459Z,5.40
2018-06-16T12:46:00.454Z,5.10
2018-06-16T12:48:29.417Z,4.73
2018-06-16T12:50:58.390Z,5.17
2018-06-16T12:53:27.557Z,5.00
2018-06-16T12:55:56.542Z,5.07
2018-06-16T12:58:25.489Z,5.07
2018-06-16T13:00:54.476Z,5.80
2018-06-16T13:03:23.415Z,5.33
2018-06-16T13:05:52.397Z,5.00
2018-06-16T13:08:21.352Z,5.43
2018-06-16T13:10:50.351Z,5.77
2018-06-16T13:13:19.315Z,4.83
2018-06-16T13:15:48.316Z,5.17
2018-06-16T13:18:17.299Z,4.80
2018-06-16T13:20:46.441Z,5.30
2018-06-16T13:23:15.439Z,4.47
2018-06-16T13:25:44.446Z,4.33
2018-06-16T13:28:13.422Z,5.10
2018-06-16T13:30:42.375Z,5.00
2018-06-16T13:33:11.402Z,4.87
2018-06-16T13:35:40.314Z,4.43
2018-06-16T13:38:09.276Z,4.90
2018-06-16T13:40:38.214Z,4.30
2018-06-16T13:43:07.249Z,4.80
2018-06-16T13:45:36.170Z,5.10
2018-06-16T13:48:05.184Z,4.67
2018-06-16T13:50:34.135Z,5.00
2018-06-16T13:53:03.119Z,4.67
2018-06-16T13:55:32.094Z,4.23
2018-06-16T13:58:01.135Z,4.43
2018-06-16T14:00:30.135Z,4.30
2018-06-16T14:02:59.151Z,4.23
2018-06-16T14:05:28.107Z,4.50
2018-06-16T14:07:57.136Z,3.87
2018-06-16T14:10:26.076Z,3.50
2018-06-16T14:12:55.099Z,3.20
2018-06-16T14:15:24.046Z,3.13
2018-06-16T14:17:53.059Z,3.50
2018-06-16T14:20:22.014Z,4.40
2018-06-16T14:22:51.009Z,3.50
2018-06-16T14:25:19.933Z,4.10
2018-06-16T14:27:48.894Z,3.80
2018-06-16T14:30:17.848Z,3.60
2018-06-16T14:32:46.886Z,3.60
2018-06-16T14:35:15.826Z,3.83
2018-06-16T14:37:44.818Z,3.77
2018-06-16T14:40:13.790Z,3.47
2018-06-16T14:42:42.806Z,4.40
2018-06-16T14:45:11.795Z,3.80
2018-06-16T14:47:40.775Z,3.77
2018-06-16T14:50:09.734Z,3.40
2018-06-16T14:52:38.733Z,3.30
2018-06-16T14:55:07.773Z,2.90
2018-06-16T14:57:36.761Z,2.93
2018-06-16T15:00:05.808Z,2.77
2018-06-16T15:02:34.807Z,2.57
2018-06-16T15:05:03.932Z,2.90
2018-06-16T15:07:32.921Z,2.80
2018-06-16T15:10:01.891Z,2.60
2018-06-16T15:12:31.038Z,2.87
2018-06-16T15:15:00.024Z,2.80
2018-06-16T15:17:29.046Z,2.90
2018-06-16T15:19:58.012Z,2.77
2018-06-16T15:22:27.007Z,2.87
2018-06-16T15:24:55.970Z,2.43
2018-06-16T15:27:24.926Z,2.80
2018-06-16T15:29:53.947Z,2.50
2018-06-16T15:32:22.934Z,2.60
2018-06-16T15:34:51.922Z,2.83
2018-06-16T15:37:20.862Z,2.93
2018-06-16T15:39:49.862Z,2.40
2018-06-16T15:42:18.820Z,3.00
2018-06-16T15:44:47.814Z,2.40
2018-06-16T15:47:16.782Z,2.97
2018-06-16T15:49:45.862Z,3.10
2018-06-16T15:52:14.821Z,2.87
2018-06-16T15:54:43.834Z,3.10
2018-06-16T15:57:12.892Z,2.80
2018-06-16T15:59:41.905Z,3.20
2018-06-16T16:02:10.905Z,2.40
2018-06-16T16:04:39.905Z,3.03
2018-06-16T16:07:08.874Z,3.20
2018-06-16T16:09:37.873Z,2.70
2018-06-16T16:12:06.834Z,3.60
2018-06-16T16:14:35.823Z,3.10
2018-06-16T16:17:04.770Z,2.40
2018-06-16T16:19:33.954Z,2.70
2018-06-16T16:22:02.959Z,3.17
2018-06-16T16:24:31.951Z,2.80
2018-06-16T16:27:00.910Z,2.93
2018-06-16T16:29:29.901Z,2.40
2018-06-16T16:31:58.871Z,2.80
2018-06-16T16:34:27.902Z,2.30
2018-06-16T16:36:56.842Z,3.00
2018-06-16T16:39:25.874Z,2.90
2018-06-16T16:41:54.813Z,2.87
2018-06-16T16:44:23.814Z,2.40
2018-06-16T16:46:52.745Z,2.40
2018-06-16T16:49:21.740Z,2.83
2018-06-16T16:51:50.663Z,2.37
2018-06-16T16:54:19.740Z,2.70
2018-06-16T16:56:48.762Z,2.63
2018-06-16T16:59:17.723Z,2.73
2018-06-16T17:01:46.722Z,2.50
2018-06-16T17:04:15.676Z,2.43
2018-06-16T17:06:44.696Z,2.43
2018-06-16T17:09:13.765Z,2.80
2018-06-16T17:11:42.916Z,2.60
2018-06-16T17:14:11.862Z,2.77
2018-06-16T17:16:40.823Z,2.90
2018-06-16T17:19:09.817Z,3.50
2018-06-16T17:21:39.115Z,2.70
2018-06-16T17:24:08.057Z,2.73
2018-06-16T17:26:37.067Z,3.10
2018-06-16T17:29:06.112Z,2.77
2018-06-16T17:31:35.263Z,3.77
2018-06-16T17:34:04.282Z,3.10
2018-06-16T17:36:33.255Z,3.10
2018-06-16T17:39:02.190Z,2.80
2018-06-16T17:41:31.199Z,3.20
2018-06-16T17:44:00.119Z,3.10
2018-06-16T17:46:29.106Z,3.27
2018-06-16T17:48:58.062Z,3.00
2018-06-16T17:51:27.047Z,2.73
2018-06-16T17:53:56.000Z,2.30
2018-06-16T17:56:25.023Z,2.50
2018-06-16T17:58:54.270Z,2.90
2018-06-16T18:01:23.454Z,2.23
2018-06-16T18:03:52.472Z,3.03
2018-06-16T18:06:21.483Z,2.73
2018-06-16T18:08:50.438Z,2.60
2018-06-16T18:11:19.416Z,2.87
2018-06-16T18:13:48.411Z,2.70
2018-06-16T18:16:17.390Z,3.20
2018-06-16T18:18:46.316Z,2.73
2018-06-16T18:21:15.304Z,2.30
2018-06-16T18:23:44.261Z,2.97
2018-06-16T18:26:13.241Z,3.00
2018-06-16T18:28:42.198Z,2.63
2018-06-16T18:31:11.194Z,2.63
2018-06-16T18:33:40.135Z,2.63
2018-06-16T18:36:09.087Z,2.83
2018-06-16T18:38:38.102Z,2.80
2018-06-16T18:41:07.119Z,2.60
2018-06-16T18:43:36.153Z,2.50
2018-06-16T18:46:05.135Z,2.53
2018-06-16T18:48:34.161Z,2.73
2018-06-16T18:51:03.155Z,3.00
2018-06-16T18:53:32.141Z,2.97
2018-06-16T18:56:01.087Z,2.50
2018-06-16T18:58:30.110Z,2.30
2018-06-16T19:00:59.111Z,2.63
2018-06-16T19:03:28.142Z,2.60
2018-06-16T19:05:57.145Z,2.80
2018-06-16T19:08:26.122Z,3.17
2018-06-16T19:10:55.110Z,3.03
2018-06-16T19:13:24.113Z,3.20
2018-06-16T19:15:53.089Z,3.40
2018-06-16T19:18:22.438Z,9.80
2018-06-16T19:20:51.390Z,3.40
2018-06-16T19:23:20.434Z,2.77
2018-06-16T19:25:49.424Z,3.27
2018-06-16T19:28:18.454Z,3.20
2018-06-16T19:30:47.635Z,3.37
2018-06-16T19:33:16.735Z,2.90
2018-06-16T19:35:45.699Z,3.13
2018-06-16T19:38:14.717Z,3.00
2018-06-16T19:40:43.718Z,3.13
2018-06-16T19:43:12.763Z,2.60
2018-06-16T19:45:41.731Z,2.77
2018-06-16T19:48:10.727Z,2.80
2018-06-16T19:50:39.674Z,2.50
2018-06-16T19:53:08.685Z,2.53
2018-06-16T19:55:37.663Z,2.30
2018-06-16T19:58:06.704Z,3.03
2018-06-16T20:00:35.695Z,2.50
2018-06-16T20:03:04.730Z,2.30
2018-06-16T20:05:33.795Z,2.50
2018-06-16T20:08:02.847Z,2.90
2018-06-16T20:10:31.824Z,2.80
2018-06-16T20:13:00.865Z,2.37
2018-06-16T20:15:29.809Z,2.57
2018-06-16T20:17:58.805Z,2.50
2018-06-16T20:20:27.824Z,2.67
2018-06-16T20:22:56.872Z,2.50
2018-06-16T20:25:25.854Z,2.50
2018-06-16T20:27:54.854Z,2.23
2018-06-16T20:30:23.795Z,2.50
2018-06-16T20:32:52.814Z,2.30
2018-06-16T20:35:21.793Z,1.97
2018-06-16T20:37:50.785Z,1.70
2018-06-16T20:40:19.781Z,2.10
2018-06-16T20:42:48.815Z,1.70
2018-06-16T20:45:17.764Z,1.67
2018-06-16T20:47:46.820Z,1.73
2018-06-16T20:50:15.815Z,1.60
2018-06-16T20:52:45.503Z,1.73
2018-06-16T20:55:14.492Z,2.03
2018-06-16T20:57:43.510Z,2.17
2018-06-16T21:00:12.457Z,2.27
2018-06-16T21:02:41.472Z,1.97
2018-06-16T21:05:10.442Z,1.60
2018-06-16T21:07:39.446Z,1.70
2018-06-16T21:10:08.420Z,1.70
2018-06-16T21:12:37.399Z,1.67
2018-06-16T21:15:06.365Z,1.70
2018-06-16T21:17:35.370Z,1.50
2018-06-16T21:20:04.408Z,1.93
2018-06-16T21:22:33.451Z,2.20
2018-06-16T21:25:02.424Z,1.80
2018-06-16T21:27:31.416Z,1.80
2018-06-16T21:30:00.456Z,1.57
2018-06-16T21:32:29.420Z,1.73
2018-06-16T21:34:58.451Z,1.80
2018-06-16T21:37:27.415Z,1.80
2018-06-16T21:39:56.434Z,1.80
2018-06-16T21:42:25.416Z,1.77
2018-06-16T21:44:54.411Z,1.50
2018-06-16T21:47:23.363Z,1.70
2018-06-16T21:49:52.352Z,2.00
2018-06-16T21:52:21.315Z,1.53
2018-06-16T21:54:50.322Z,2.07
2018-06-16T21:57:19.305Z,1.50
2018-06-16T21:59:48.281Z,1.70
2018-06-16T22:02:17.238Z,1.93
2018-06-16T22:04:46.261Z,1.77
2018-06-16T22:07:15.231Z,1.97
2018-06-16T22:09:44.226Z,1.93
2018-06-16T22:12:13.177Z,2.00
2018-06-16T22:14:42.202Z,2.20
2018-06-16T22:17:11.151Z,2.10
2018-06-16T22:19:40.126Z,2.27
2018-06-16T22:22:09.102Z,2.20
2018-06-16T22:24:38.102Z,2.40
2018-06-16T22:27:07.056Z,2.47
2018-06-16T22:29:36.049Z,2.40
2018-06-16T22:32:05.154Z,2.97
2018-06-16T22:34:34.163Z,2.53
2018-06-16T22:37:03.119Z,3.20
2018-06-16T22:39:32.117Z,2.90
2018-06-16T22:42:01.090Z,2.97
2018-06-16T22:44:30.073Z,3.10
2018-06-16T22:46:59.022Z,3.73
2018-06-16T22:49:28.025Z,3.60
2018-06-16T22:51:56.979Z,2.93
2018-06-16T22:54:25.971Z,3.33
2018-06-16T22:56:54.942Z,3.40
2018-06-16T22:59:23.989Z,3.17
2018-06-16T23:01:52.964Z,3.27
2018-06-16T23:04:21.977Z,3.63
2018-06-16T23:06:50.949Z,3.90
2018-06-16T23:09:19.994Z,4.30
2018-06-16T23:11:49.007Z,3.63
2018-06-16T23:14:17.995Z,4.10
2018-06-16T23:16:46.985Z,4.33
2018-06-16T23:19:16.015Z,4.27
2018-06-16T23:21:45.018Z,3.87
2018-06-16T23:24:14.046Z,3.73
2018-06-16T23:26:43.007Z,4.40
2018-06-16T23:29:12.015Z,4.30
2018-06-16T23:31:40.996Z,4.17
2018-06-16T23:34:10.004Z,4.20
2018-06-16T23:36:38.989Z,4.47
2018-06-16T23:39:11.293Z,4.00
2018-06-16T23:41:40.258Z,4.87
2018-06-16T23:44:09.262Z,4.70
2018-06-16T23:46:38.458Z,4.33
2018-06-16T23:49:07.477Z,5.53
2018-06-16T23:51:36.450Z,4.90
2018-06-16T23:54:05.565Z,4.30
2018-06-16T23:56:34.519Z,4.30
2018-06-16T23:59:03.533Z,3.60
